Terminal Aerodrome Forecast
Issued by NWS

Home | Current Version | Previous Version | Text Only | Print | Product List | Glossary On
Versions: 1 2 3 4 5 6 7 8 9 10 11 12 13 14 15
035
FTUS41 KBTV 291133
TAFRUT
TAF
KRUT 291133Z 2912/3012 15006KT P6SM SCT070 OVC110
     FM291400 VRB03KT P6SM -SHRA OVC070
     FM291800 17005KT 6SM -SHRA BR OVC070
     FM292100 16008KT 5SM +SHRA BR OVC050
     FM300600 22007KT 4SM -SHRA BR OVC045
     FM300900 23007KT P6SM VCSH BKN030=

USA.gov is the U.S. government's official web portal to all federal, state and local government web resources and services.